Time;durP1;ratioP1;P1;durP2;ratioP2;P2;SDS_P1;SDS_P2;PMS_P1;PMS_P2;Temp;Humidity;BMP_temperature;BMP_pressure;BME280_temperature;BME280_humidity;BME280_pressure;Samples;Min_cycle;Max_cycle;Signal;HPM_P1;HPM_P2
2022/06/29 00:01:15;;;;;;;66.78;51.55;;;24.70;59.10;;;;;;4947002;28;96958;-67
2022/06/29 00:03:40;;;;;;;68.43;51.72;;;24.70;59.10;;;;;;4944173;28;97898;-66
2022/06/29 00:06:06;;;;;;;66.45;51.55;;;24.60;59.20;;;;;;4946568;28;96043;-66
2022/06/29 00:08:32;;;;;;;67.13;51.53;;;24.50;59.40;;;;;;4953746;28;94646;-65
2022/06/29 00:10:57;;;;;;;66.53;51.33;;;24.50;59.50;;;;;;4945847;28;96615;-67
2022/06/29 00:13:23;;;;;;;69.80;51.53;;;24.50;59.30;;;;;;4950693;28;95040;-67
2022/06/29 00:15:48;;;;;;;67.90;51.70;;;24.50;59.50;;;;;;4950803;28;98036;-66
2022/06/29 00:18:14;;;;;;;66.00;51.40;;;24.40;59.50;;;;;;4935986;28;95918;-66
2022/06/29 00:20:40;;;;;;;67.35;51.13;;;24.40;59.50;;;;;;4947714;28;94492;-67
2022/06/29 00:23:06;;;;;;;66.97;51.45;;;24.40;59.30;;;;;;4925673;28;98477;-67
2022/06/29 00:25:32;;;;;;;67.57;51.53;;;24.40;59.60;;;;;;4947644;28;98151;-67
2022/06/29 00:27:57;;;;;;;67.03;51.55;;;24.40;59.70;;;;;;4954847;28;97941;-66
2022/06/29 00:30:23;;;;;;;65.75;51.13;;;24.40;59.70;;;;;;4974025;28;95195;-66
2022/06/29 00:32:48;;;;;;;66.00;51.15;;;24.40;59.70;;;;;;4939439;28;95215;-65
2022/06/29 00:35:14;;;;;;;66.15;51.05;;;24.40;59.70;;;;;;4962952;28;97377;-66
2022/06/29 00:37:40;;;;;;;65.88;51.35;;;24.30;59.70;;;;;;4965885;28;94995;-66
2022/06/29 00:40:07;;;;;;;66.60;51.30;;;24.20;59.80;;;;;;4973617;28;98385;-66
2022/06/29 00:42:33;;;;;;;67.35;51.38;;;24.20;60.00;;;;;;4964307;28;95597;-66
2022/06/29 00:44:59;;;;;;;66.88;51.38;;;24.20;60.10;;;;;;4969595;28;93866;-66
2022/06/29 00:47:24;;;;;;;66.75;51.45;;;24.10;60.10;;;;;;4963474;28;94709;-66
2022/06/29 00:49:50;;;;;;;66.07;51.35;;;24.10;60.10;;;;;;4970718;28;95392;-66
2022/06/29 00:52:18;;;;;;;66.30;51.60;;;24.10;60.10;;;;;;4963162;28;100704;-67
2022/06/29 00:54:46;;;;;;;66.47;51.25;;;24.10;60.30;;;;;;4964611;28;100865;-65
2022/06/29 00:57:14;;;;;;;66.93;51.33;;;24.10;60.10;;;;;;4963976;28;98066;-66
2022/06/29 00:59:48;;;;;;;67.13;51.20;;;24.20;60.30;;;;;;4962996;28;96616;-66
2022/06/29 01:02:19;;;;;;;65.97;51.10;;;24.10;60.20;;;;;;4956911;28;95402;-66
2022/06/29 01:04:46;;;;;;;67.35;51.30;;;24.10;60.30;;;;;;4963942;28;95000;-67
2022/06/29 01:07:13;;;;;;;66.78;51.28;;;24.10;60.40;;;;;;4957772;28;95474;-65
2022/06/29 01:09:40;;;;;;;67.05;51.35;;;24.10;60.20;;;;;;4969860;28;96685;-65
2022/06/29 01:12:06;;;;;;;67.05;51.42;;;24.00;60.30;;;;;;4966010;28;97277;-66
2022/06/29 01:14:31;;;;;;;66.25;51.08;;;24.00;60.40;;;;;;4961481;28;96898;-66
2022/06/29 01:16:57;;;;;;;66.68;51.50;;;24.00;60.30;;;;;;4953835;28;95880;-66
2022/06/29 01:19:23;;;;;;;66.70;51.38;;;24.00;60.50;;;;;;4966402;28;94921;-68
2022/06/29 01:21:52;;;;;;;66.53;51.45;;;24.00;60.60;;;;;;4969253;28;96335;-65
2022/06/29 01:24:19;;;;;;;65.53;51.28;;;24.00;60.60;;;;;;4964753;28;96053;-66
2022/06/29 01:26:45;;;;;;;65.75;51.33;;;24.00;60.60;;;;;;4968213;28;95094;-67
2022/06/29 01:29:11;;;;;;;66.35;51.15;;;24.00;60.60;;;;;;4955594;28;99179;-66
2022/06/29 01:31:36;;;;;;;66.85;51.15;;;23.90;60.60;;;;;;4981040;28;97813;-66
2022/06/29 01:34:02;;;;;;;66.82;51.42;;;23.90;60.70;;;;;;4961463;28;95187;-69
2022/06/29 01:36:28;;;;;;;66.03;51.28;;;23.90;60.80;;;;;;4971715;28;95014;-66
2022/06/29 01:38:53;;;;;;;65.80;51.15;;;23.90;60.70;;;;;;4964048;28;99009;-67
2022/06/29 01:41:19;;;;;;;66.13;51.35;;;23.80;60.70;;;;;;4965458;28;95814;-67
2022/06/29 01:43:45;;;;;;;65.60;50.92;;;23.90;61.00;;;;;;4966578;28;99470;-68
2022/06/29 01:46:11;;;;;;;66.82;51.25;;;23.80;60.80;;;;;;4971976;28;95641;-66
2022/06/29 01:48:36;;;;;;;66.38;51.25;;;23.90;60.70;;;;;;4964248;28;94982;-66
2022/06/29 01:51:02;;;;;;;65.95;51.25;;;23.80;60.50;;;;;;4965771;28;97022;-66
2022/06/29 01:53:28;;;;;;;65.95;51.03;;;23.80;60.70;;;;;;4964482;28;95516;-66
2022/06/29 01:55:54;;;;;;;66.13;51.42;;;23.90;60.60;;;;;;4960079;28;96580;-68
2022/06/29 01:58:20;;;;;;;66.53;51.22;;;23.80;60.60;;;;;;4974274;28;94346;-66
2022/06/29 02:00:45;;;;;;;66.85;51.63;;;23.80;60.60;;;;;;4950269;28;95149;-66
2022/06/29 02:03:11;;;;;;;65.25;51.05;;;23.80;61.60;;;;;;4933076;28;98019;-66
2022/06/29 02:05:37;;;;;;;64.82;50.65;;;23.70;60.70;;;;;;4954610;28;96747;-66
2022/06/29 02:08:03;;;;;;;66.18;51.08;;;23.80;60.80;;;;;;4971785;28;95956;-67
2022/06/29 02:10:29;;;;;;;65.03;51.00;;;23.70;60.90;;;;;;4963614;28;95130;-66
2022/06/29 02:12:55;;;;;;;65.70;51.03;;;23.70;61.00;;;;;;4963065;28;96878;-66
2022/06/29 02:15:23;;;;;;;65.90;51.17;;;23.70;60.90;;;;;;4969409;28;95188;-66
2022/06/29 02:17:50;;;;;;;64.82;50.65;;;23.70;60.90;;;;;;4970772;28;95304;-66
2022/06/29 02:20:15;;;;;;;64.30;50.55;;;23.70;60.90;;;;;;4971969;28;100402;-66
2022/06/29 02:22:41;;;;;;;65.82;51.10;;;23.70;60.80;;;;;;4967093;28;100074;-65
2022/06/29 02:25:08;;;;;;;66.75;51.28;;;23.70;61.50;;;;;;4974577;28;99707;-66
2022/06/29 02:27:33;;;;;;;64.95;50.72;;;23.70;60.70;;;;;;4966629;28;94975;-68
2022/06/29 02:29:59;;;;;;;65.32;51.03;;;23.70;60.70;;;;;;4943488;28;95823;-66
2022/06/29 02:35:09;;;;;;;66.80;51.15;;;23.70;60.70;;;;;;4947918;28;95525;-67
2022/06/29 02:37:34;;;;;;;65.57;50.92;;;23.70;61.10;;;;;;4952580;28;96558;-67
2022/06/29 02:40:00;;;;;;;66.28;51.00;;;23.70;60.80;;;;;;4951293;28;95049;-67
2022/06/29 02:42:27;;;;;;;65.05;51.22;;;23.60;60.90;;;;;;4948237;28;95235;-66
2022/06/29 02:44:52;;;;;;;67.50;51.25;;;23.60;61.00;;;;;;4943661;28;97366;-66
2022/06/29 02:47:18;;;;;;;65.90;51.42;;;23.60;60.90;;;;;;4955105;28;94611;-66
2022/06/29 02:49:44;;;;;;;64.95;51.03;;;23.50;61.00;;;;;;4947188;28;96361;-67
2022/06/29 02:52:10;;;;;;;65.53;51.15;;;23.50;61.10;;;;;;4951832;28;95206;-68
2022/06/29 02:54:36;;;;;;;66.35;50.95;;;23.50;60.90;;;;;;4944299;28;95944;-67
2022/06/29 02:57:02;;;;;;;66.03;51.05;;;23.50;61.10;;;;;;4949542;28;95356;-66
2022/06/29 02:59:28;;;;;;;65.30;51.17;;;23.50;61.10;;;;;;4949229;28;95448;-67
2022/06/29 03:01:54;;;;;;;66.97;51.30;;;23.50;61.10;;;;;;4948943;28;95097;-66
2022/06/29 03:04:20;;;;;;;65.00;51.05;;;23.50;60.90;;;;;;4947057;28;94956;-65
2022/06/29 03:06:46;;;;;;;65.15;51.03;;;23.50;61.20;;;;;;4956113;28;95241;-66
2022/06/29 03:09:11;;;;;;;64.50;50.75;;;23.50;61.10;;;;;;4941733;28;97156;-66
2022/06/29 03:11:37;;;;;;;65.35;50.78;;;23.50;61.10;;;;;;4950830;28;93984;-66
2022/06/29 03:14:03;;;;;;;66.03;51.25;;;23.50;61.10;;;;;;4924334;28;94753;-66
2022/06/29 03:16:29;;;;;;;65.03;50.97;;;23.40;61.00;;;;;;4949927;28;95147;-66
2022/06/29 03:18:55;;;;;;;65.45;50.92;;;23.40;61.10;;;;;;4943268;28;98047;-66
2022/06/29 03:21:20;;;;;;;65.32;51.08;;;23.40;61.00;;;;;;4949263;28;96049;-66
2022/06/29 03:23:46;;;;;;;65.75;51.17;;;23.40;61.10;;;;;;4940991;28;94657;-66
2022/06/29 03:26:12;;;;;;;65.07;50.85;;;23.50;60.90;;;;;;4948879;28;95090;-66
2022/06/29 03:28:38;;;;;;;64.43;50.47;;;23.50;60.80;;;;;;4967037;28;95057;-66
2022/06/29 03:31:04;;;;;;;66.00;51.00;;;23.50;60.80;;;;;;4970620;28;95039;-66
2022/06/29 03:33:30;;;;;;;64.90;50.97;;;23.40;60.90;;;;;;4961608;28;97704;-66
2022/06/29 03:35:56;;;;;;;64.85;50.92;;;23.50;60.90;;;;;;4970194;28;93970;-66
2022/06/29 03:38:22;;;;;;;64.72;50.97;;;23.50;60.90;;;;;;4970841;28;95014;-66
2022/06/29 03:40:47;;;;;;;65.97;51.10;;;23.40;60.70;;;;;;4968772;28;94882;-66
2022/06/29 03:43:13;;;;;;;64.80;50.65;;;23.40;60.80;;;;;;4956910;28;98418;-67
2022/06/29 03:45:39;;;;;;;65.20;50.90;;;23.40;60.70;;;;;;4970500;28;95514;-67
2022/06/29 03:48:05;;;;;;;65.43;51.13;;;23.40;60.70;;;;;;4976138;28;95859;-67
2022/06/29 03:50:31;;;;;;;64.93;50.40;;;23.40;60.70;;;;;;4967366;28;95042;-66
2022/06/29 03:52:56;;;;;;;65.75;50.95;;;23.40;60.80;;;;;;4971492;28;95171;-67
2022/06/29 03:55:22;;;;;;;65.07;50.80;;;23.40;60.70;;;;;;4974725;28;94809;-67
2022/06/29 03:57:48;;;;;;;64.82;50.70;;;23.40;60.80;;;;;;4972356;28;95379;-67
2022/06/29 04:00:14;;;;;;;65.35;50.97;;;23.40;60.70;;;;;;4965430;28;95228;-67
2022/06/29 04:02:40;;;;;;;65.22;50.85;;;23.40;60.70;;;;;;4967629;28;96081;-66
2022/06/29 04:05:06;;;;;;;64.93;50.70;;;23.30;60.80;;;;;;4942089;28;96632;-66
2022/06/29 04:07:32;;;;;;;64.65;50.88;;;23.30;60.80;;;;;;4974796;28;97047;-66
2022/06/29 04:10:01;;;;;;;64.45;50.75;;;23.40;61.00;;;;;;4963451;28;97174;-68
2022/06/29 04:12:33;;;;;;;64.13;50.70;;;23.30;60.90;;;;;;4967405;28;96524;-66
2022/06/29 04:14:59;;;;;;;64.72;50.88;;;23.40;60.90;;;;;;4967019;28;100178;-67
2022/06/29 04:17:25;;;;;;;64.68;50.95;;;23.40;60.90;;;;;;4970060;28;95211;-67
2022/06/29 04:19:51;;;;;;;64.00;50.47;;;23.30;60.80;;;;;;4969487;28;96202;-66
2022/06/29 04:22:17;;;;;;;65.13;50.88;;;23.40;60.90;;;;;;4954612;28;95250;-67
2022/06/29 04:24:43;;;;;;;64.57;50.83;;;23.30;60.90;;;;;;4962667;28;94433;-67
2022/06/29 04:27:09;;;;;;;64.05;50.75;;;23.30;61.10;;;;;;4969742;28;94646;-66
2022/06/29 04:29:35;;;;;;;64.22;50.60;;;23.20;60.80;;;;;;4963394;28;100125;-67
2022/06/29 04:32:01;;;;;;;65.00;50.60;;;23.20;60.90;;;;;;4961254;28;96047;-66
2022/06/29 04:34:27;;;;;;;64.40;50.83;;;23.10;61.10;;;;;;4962570;28;99073;-67
2022/06/29 04:36:53;;;;;;;64.60;50.65;;;23.00;61.40;;;;;;4969824;28;98472;-67
2022/06/29 04:39:19;;;;;;;66.10;50.97;;;23.00;61.60;;;;;;4967346;28;95951;-65
2022/06/29 04:41:45;;;;;;;64.75;50.83;;;22.90;61.60;;;;;;4962538;28;96371;-66
2022/06/29 04:44:11;;;;;;;63.90;50.55;;;22.80;61.90;;;;;;4966180;28;97364;-66
2022/06/29 04:46:36;;;;;;;64.80;50.75;;;22.70;62.10;;;;;;4963632;28;96391;-66
2022/06/29 04:49:03;;;;;;;64.57;50.63;;;22.70;62.40;;;;;;4967814;28;95430;-66
2022/06/29 04:51:30;;;;;;;64.45;50.67;;;22.60;62.60;;;;;;4956686;28;95087;-66
2022/06/29 04:53:57;;;;;;;64.90;50.75;;;22.60;62.70;;;;;;4971002;28;96416;-66
2022/06/29 04:56:24;;;;;;;64.68;50.47;;;22.60;63.10;;;;;;4959897;28;96190;-65
2022/06/29 04:58:53;;;;;;;63.63;50.33;;;22.50;63.10;;;;;;4958995;28;96825;-66
2022/06/29 05:01:23;;;;;;;64.18;50.70;;;22.50;63.10;;;;;;4963311;28;95255;-66
2022/06/29 05:03:49;;;;;;;64.65;50.53;;;22.50;63.60;;;;;;4958569;28;95453;-66
2022/06/29 05:06:15;;;;;;;65.30;50.65;;;22.50;63.90;;;;;;4960919;28;95159;-66
2022/06/29 05:08:41;;;;;;;64.03;50.47;;;22.50;63.30;;;;;;4968329;28;95286;-66
2022/06/29 05:11:07;;;;;;;64.07;50.38;;;22.50;63.50;;;;;;4966240;28;94819;-66
2022/06/29 05:13:32;;;;;;;64.55;50.53;;;22.50;63.50;;;;;;4949414;28;94420;-66
2022/06/29 05:15:58;;;;;;;64.32;50.42;;;22.60;63.80;;;;;;4963830;28;95391;-65
2022/06/29 05:18:24;;;;;;;64.18;50.53;;;22.60;63.60;;;;;;4954817;28;96601;-65
2022/06/29 05:20:50;;;;;;;64.13;50.63;;;22.60;63.20;;;;;;4956530;28;98252;-65
2022/06/29 05:23:16;;;;;;;64.03;50.58;;;22.50;63.10;;;;;;4970059;28;94437;-66
2022/06/29 05:25:41;;;;;;;64.15;50.55;;;22.50;63.20;;;;;;4949081;28;95637;-65
2022/06/29 05:28:08;;;;;;;64.35;50.55;;;22.50;63.30;;;;;;4962888;28;96056;-65
2022/06/29 05:30:34;;;;;;;65.10;50.65;;;22.50;63.30;;;;;;4949329;28;95067;-66
2022/06/29 05:33:00;;;;;;;64.15;50.35;;;22.50;63.20;;;;;;4961047;28;99933;-65
2022/06/29 05:35:27;;;;;;;65.10;50.70;;;22.50;63.30;;;;;;4957663;28;96130;-65
2022/06/29 05:37:53;;;;;;;64.55;50.42;;;22.60;62.80;;;;;;4969839;28;96369;-65
2022/06/29 05:40:19;;;;;;;66.45;50.78;;;22.60;63.10;;;;;;4969707;28;100285;-66
2022/06/29 05:42:45;;;;;;;64.47;50.47;;;22.70;62.90;;;;;;4953534;28;98422;-64
2022/06/29 05:45:10;;;;;;;63.80;50.58;;;22.70;63.00;;;;;;4968523;28;97186;-65
2022/06/29 05:47:36;;;;;;;64.32;50.60;;;22.70;62.80;;;;;;4964095;28;96056;-65
2022/06/29 05:50:02;;;;;;;66.10;50.80;;;22.80;62.90;;;;;;4974846;28;95399;-66
2022/06/29 05:52:27;;;;;;;64.53;50.63;;;22.80;62.80;;;;;;4970383;28;95004;-65
2022/06/29 05:54:53;;;;;;;65.57;50.75;;;22.80;62.80;;;;;;4959893;28;95369;-65
2022/06/29 05:57:19;;;;;;;66.68;51.13;;;22.90;62.50;;;;;;4965239;28;94849;-65
2022/06/29 05:59:48;;;;;;;65.15;50.72;;;22.90;62.50;;;;;;4970647;28;95755;-65
2022/06/29 06:02:14;;;;;;;66.70;50.70;;;22.90;62.20;;;;;;4960953;28;104778;-65
2022/06/29 06:04:40;;;;;;;64.72;50.75;;;23.00;62.10;;;;;;4964640;28;96664;-66
2022/06/29 06:07:06;;;;;;;68.18;51.03;;;23.00;62.20;;;;;;4933870;28;97322;-65
2022/06/29 06:09:32;;;;;;;69.03;53.72;;;22.90;62.00;;;;;;4958522;28;97075;-62
2022/06/29 06:11:58;;;;;;;71.72;54.10;;;22.10;59.30;;;;;;4959579;28;95180;-67
2022/06/29 06:14:24;;;;;;;72.30;54.42;;;21.40;62.40;;;;;;4971099;28;97719;-66
2022/06/29 06:16:50;;;;;;;69.93;53.83;;;21.10;63.30;;;;;;4970292;28;98795;-66
2022/06/29 06:19:16;;;;;;;68.97;53.67;;;20.70;63.40;;;;;;4971561;28;95238;-67
2022/06/29 06:21:42;;;;;;;71.75;54.58;;;20.60;65.70;;;;;;4969367;28;100691;-66
2022/06/29 06:24:08;;;;;;;72.53;54.30;;;20.60;65.90;;;;;;4965118;28;96538;-58
2022/06/29 06:26:33;;;;;;;69.30;53.75;;;20.60;66.60;;;;;;4964236;28;97315;-68
2022/06/29 06:28:59;;;;;;;73.85;54.13;;;20.40;67.20;;;;;;4967806;28;94786;-61
2022/06/29 06:31:25;;;;;;;72.75;54.15;;;20.50;67.10;;;;;;4965926;28;95410;-60
2022/06/29 06:33:51;;;;;;;71.00;54.08;;;20.60;66.60;;;;;;4969983;28;98056;-58
2022/06/29 06:36:17;;;;;;;71.70;53.95;;;20.60;64.70;;;;;;4965376;28;97845;-62
2022/06/29 06:38:43;;;;;;;73.75;54.45;;;20.60;66.70;;;;;;4969953;28;94945;-62
2022/06/29 06:41:27;;;;;;;74.85;54.45;;;20.70;64.00;;;;;;4978822;28;94900;-63
2022/06/29 06:43:57;;;;;;;68.25;53.58;;;20.60;65.50;;;;;;4965056;28;95787;-60
2022/06/29 06:46:24;;;;;;;70.82;53.30;;;20.70;66.30;;;;;;4959600;28;95190;-57
2022/06/29 06:48:51;;;;;;;74.03;53.95;;;20.80;65.80;;;;;;4970289;28;97576;-57
2022/06/29 06:51:18;;;;;;;73.03;53.85;;;20.90;65.90;;;;;;4968183;28;95197;-57
2022/06/29 06:53:44;;;;;;;69.50;53.90;;;20.90;65.60;;;;;;4963705;28;97486;-58
2022/06/29 06:56:10;;;;;;;70.55;53.03;;;21.00;65.40;;;;;;4967528;28;94930;-62
2022/06/29 06:58:35;;;;;;;70.88;52.47;;;21.00;65.10;;;;;;4964666;28;97088;-63
2022/06/29 07:01:06;;;;;;;70.30;52.60;;;21.30;64.90;;;;;;4964777;28;95062;-62
2022/06/29 07:03:32;;;;;;;75.63;52.95;;;21.50;64.80;;;;;;4969689;28;95413;-62
2022/06/29 07:06:00;;;;;;;70.10;52.53;;;21.80;64.60;;;;;;4959752;28;95378;-63
2022/06/29 07:08:27;;;;;;;67.60;52.40;;;22.00;63.70;;;;;;4965289;28;95574;-64
2022/06/29 07:10:52;;;;;;;68.72;52.70;;;22.10;63.40;;;;;;4972429;28;95543;-62
2022/06/29 07:13:18;;;;;;;72.90;52.55;;;22.20;63.10;;;;;;4966892;28;95565;-66
2022/06/29 07:15:43;;;;;;;71.70;52.80;;;22.10;63.10;;;;;;4968649;28;96066;-62
2022/06/29 07:18:09;;;;;;;72.55;52.97;;;22.10;63.00;;;;;;4963206;28;95020;-60
2022/06/29 07:20:35;;;;;;;71.60;52.42;;;22.20;62.80;;;;;;4966505;28;96643;-63
2022/06/29 07:23:00;;;;;;;69.50;53.22;;;22.30;62.80;;;;;;4962355;28;95835;-62
2022/06/29 07:25:26;;;;;;;68.85;52.15;;;22.20;63.90;;;;;;4960639;28;96356;-64
2022/06/29 07:27:52;;;;;;;69.63;52.28;;;22.20;63.10;;;;;;4964636;28;96320;-63
2022/06/29 07:30:17;;;;;;;70.97;51.95;;;22.10;63.50;;;;;;4971502;28;95234;-64
2022/06/29 07:32:43;;;;;;;66.35;51.83;;;22.30;64.20;;;;;;4967778;28;95208;-63
2022/06/29 07:35:09;;;;;;;72.40;52.45;;;22.50;63.20;;;;;;4955491;28;96381;-69
2022/06/29 07:37:34;;;;;;;68.53;52.13;;;22.40;63.20;;;;;;4967258;28;94755;-64
2022/06/29 07:40:00;;;;;;;67.75;51.65;;;22.40;62.90;;;;;;4969344;28;98827;-66
2022/06/29 07:42:26;;;;;;;71.65;52.25;;;22.50;62.10;;;;;;4962506;28;96389;-64
2022/06/29 07:44:52;;;;;;;69.68;51.63;;;22.80;61.90;;;;;;4967319;28;99423;-62
2022/06/29 07:47:17;;;;;;;67.75;52.10;;;22.80;61.30;;;;;;4930790;28;101091;-62
2022/06/29 07:49:43;;;;;;;66.93;51.63;;;22.90;60.60;;;;;;4968145;28;96133;-63
2022/06/29 07:52:09;;;;;;;69.18;51.95;;;23.00;61.10;;;;;;4968979;28;96949;-66
2022/06/29 07:54:34;;;;;;;67.45;51.85;;;23.20;60.50;;;;;;4966396;28;96913;-62
2022/06/29 07:57:00;;;;;;;72.90;52.45;;;23.00;60.30;;;;;;4967939;28;96724;-62
2022/06/29 07:59:26;;;;;;;68.50;51.47;;;23.10;60.70;;;;;;4964747;28;95267;-55
2022/06/29 08:01:51;;;;;;;67.28;51.75;;;23.20;60.50;;;;;;4961794;28;95267;-57
2022/06/29 08:04:17;;;;;;;68.75;52.60;;;23.40;60.00;;;;;;4955639;28;97919;-65
2022/06/29 08:06:43;;;;;;;69.47;52.45;;;23.00;59.30;;;;;;4957165;28;100307;-61
2022/06/29 08:09:09;;;;;;;70.03;51.85;;;23.10;61.30;;;;;;4965169;28;96516;-68
2022/06/29 08:11:34;;;;;;;67.95;51.85;;;23.10;61.00;;;;;;4951031;28;97171;-66
2022/06/29 08:14:00;;;;;;;69.25;52.17;;;23.30;60.30;;;;;;4954431;28;96222;-64
2022/06/29 08:16:26;;;;;;;68.60;51.90;;;23.20;59.50;;;;;;4969955;28;95284;-67
2022/06/29 08:18:52;;;;;;;68.57;51.92;;;23.30;61.20;;;;;;4952480;28;94802;-69
2022/06/29 08:21:17;;;;;;;76.32;51.72;;;23.50;60.00;;;;;;4949038;28;96211;-68
2022/06/29 08:23:43;;;;;;;69.78;52.35;;;23.50;59.70;;;;;;4963665;28;96238;-63
2022/06/29 08:26:08;;;;;;;69.10;51.92;;;23.50;59.40;;;;;;4965737;28;95607;-62
2022/06/29 08:28:34;;;;;;;69.60;52.10;;;23.50;59.10;;;;;;4971661;28;94090;-65
2022/06/29 08:31:00;;;;;;;69.97;51.88;;;23.60;59.90;;;;;;4958693;28;94846;-65
2022/06/29 08:33:25;;;;;;;68.05;51.80;;;23.60;60.30;;;;;;4966499;28;96213;-57
2022/06/29 08:35:51;;;;;;;70.30;51.78;;;23.70;58.90;;;;;;4950911;28;96960;-57
2022/06/29 08:38:17;;;;;;;69.50;52.03;;;23.80;59.00;;;;;;4964225;28;100669;-63
2022/06/29 08:40:47;;;;;;;72.30;52.50;;;23.80;58.60;;;;;;4969892;28;95331;-72
2022/06/29 08:43:15;;;;;;;69.50;52.00;;;23.90;59.20;;;;;;4951890;28;99788;-66
2022/06/29 08:45:43;;;;;;;67.40;51.55;;;24.00;59.10;;;;;;4955499;28;98891;-65
2022/06/29 08:48:10;;;;;;;68.57;51.70;;;23.80;58.20;;;;;;4959491;28;98584;-59
2022/06/29 08:50:40;;;;;;;68.78;51.80;;;23.80;59.00;;;;;;4939358;28;98414;-66
2022/06/29 08:54:57;;;;;;;101.18;67.40;;;24.00;58.60;;;;;;5008731;27;83446;-47
2022/06/29 08:57:24;;;;;;;134.57;90.32;;;24.10;57.70;;;;;;5015651;27;87159;-49
2022/06/29 08:59:53;;;;;;;212.50;140.43;;;24.10;56.30;;;;;;5012572;27;86027;-51
2022/06/29 09:02:19;;;;;;;83.00;61.75;;;24.20;57.10;;;;;;5022966;27;88332;-50
2022/06/29 09:04:44;;;;;;;400.90;275.48;;;24.30;53.80;;;;;;5006882;27;86707;-47
2022/06/29 09:07:10;;;;;;;127.65;89.97;;;24.30;57.20;;;;;;5013076;27;92553;-48
2022/06/29 09:09:59;;;;;;;121.25;85.20;;;24.40;56.70;;;;;;5006841;27;86414;-47
2022/06/29 09:12:25;;;;;;;267.10;186.57;;;24.60;55.00;;;;;;5008364;27;85429;-51
2022/06/29 09:14:50;;;;;;;118.93;86.53;;;24.60;55.10;;;;;;5015091;27;88262;-46
2022/06/29 09:17:17;;;;;;;107.85;78.35;;;24.60;54.60;;;;;;5035312;27;86825;-51
2022/06/29 09:19:45;;;;;;;91.13;66.80;;;24.70;54.20;;;;;;5020248;27;85659;-51
2022/06/29 09:22:11;;;;;;;293.35;197.82;;;24.80;53.70;;;;;;5025825;27;85482;-52
2022/06/29 09:24:37;;;;;;;75.50;58.13;;;24.70;55.40;;;;;;5022473;27;89688;-51
2022/06/29 09:27:08;;;;;;;119.82;84.28;;;24.90;53.30;;;;;;5004857;27;86613;-54
2022/06/29 09:29:41;;;;;;;146.63;106.43;;;25.00;53.70;;;;;;5012424;27;85771;-54
2022/06/29 09:32:12;;;;;;;266.20;183.38;;;25.00;53.80;;;;;;5033534;27;87500;-50
2022/06/29 09:34:44;;;;;;;230.15;161.88;;;25.00;54.40;;;;;;5011808;27;88157;-50
2022/06/29 09:37:21;;;;;;;218.57;152.25;;;25.10;52.70;;;;;;5025734;27;88418;-50
2022/06/29 09:39:48;;;;;;;483.67;345.73;;;25.20;53.50;;;;;;5009046;27;89816;-54
2022/06/29 09:42:16;;;;;;;249.52;173.45;;;25.20;54.40;;;;;;5024828;27;88150;-49
2022/06/29 09:44:43;;;;;;;133.02;97.15;;;25.20;53.80;;;;;;5024199;27;87953;-49
2022/06/29 09:47:15;;;;;;;378.20;262.80;;;25.30;53.60;;;;;;5029607;27;90005;-50
2022/06/29 09:49:43;;;;;;;80.47;60.63;;;25.40;53.70;;;;;;5023435;27;88059;-51
2022/06/29 09:52:08;;;;;;;277.05;198.57;;;25.50;51.60;;;;;;5029718;27;86213;-44
2022/06/29 09:54:58;;;;;;;105.90;76.63;;;25.50;54.50;;;;;;5023924;27;87756;-46
2022/06/29 09:57:27;;;;;;;93.72;70.75;;;25.40;53.60;;;;;;5044725;27;86085;-52
2022/06/29 10:02:45;;;;;;;82.28;61.13;;;25.60;52.30;;;;;;5042537;27;85149;-54
2022/06/29 10:05:21;;;;;;;72.45;55.63;;;25.70;52.00;;;;;;5019711;27;85264;-50
2022/06/29 10:07:53;;;;;;;69.25;53.20;;;25.60;52.70;;;;;;5029113;27;89861;-51
2022/06/29 10:10:21;;;;;;;73.07;56.28;;;25.50;52.40;;;;;;5018534;27;85903;-51
2022/06/29 10:16:05;;;;;;;68.97;53.17;;;25.50;50.80;;;;;;5006550;27;87406;-52
2022/06/29 10:18:55;;;;;;;66.80;53.15;;;25.70;51.20;;;;;;5023996;27;85937;-48
2022/06/29 10:21:27;;;;;;;66.15;52.50;;;25.70;50.60;;;;;;5017110;27;86256;-47
2022/06/29 10:23:54;;;;;;;67.70;53.33;;;25.70;50.00;;;;;;5026159;27;85909;-53
2022/06/29 10:29:14;;;;;;;65.72;52.58;;;25.60;51.90;;;;;;5022194;27;85661;-47
2022/06/29 10:31:52;;;;;;;67.22;52.88;;;25.60;51.40;;;;;;5020789;27;85707;-51
2022/06/29 10:34:37;;;;;;;66.82;51.85;;;25.70;50.60;;;;;;5013196;27;85823;-48
2022/06/29 10:37:16;;;;;;;65.18;52.08;;;25.80;50.00;;;;;;5026590;27;86353;-46
2022/06/29 10:39:45;;;;;;;64.10;51.80;;;25.90;49.50;;;;;;5016483;27;86567;-47
2022/06/29 10:45:16;;;;;;;67.25;51.80;;;25.90;48.80;;;;;;5030492;27;85721;-51
2022/06/29 10:48:07;;;;;;;69.03;51.88;;;25.90;49.40;;;;;;5029167;27;85133;-51
2022/06/29 10:50:33;;;;;;;65.30;52.20;;;26.00;49.10;;;;;;5022034;27;87076;-51
2022/06/29 10:53:10;;;;;;;64.68;52.17;;;25.90;49.90;;;;;;5029284;27;85953;-47
2022/06/29 10:55:43;;;;;;;66.45;52.35;;;25.90;50.00;;;;;;5025927;27;87241;-51
2022/06/29 10:58:09;;;;;;;67.97;52.55;;;25.90;50.80;;;;;;4997370;27;86940;-55
2022/06/29 11:00:43;;;;;;;64.85;51.95;;;25.80;51.10;;;;;;5008772;27;85418;-47
2022/06/29 11:03:23;;;;;;;66.15;52.58;;;26.00;50.50;;;;;;5008701;27;85092;-46
2022/06/29 11:15:39;;;;;;;64.95;51.58;;;26.00;50.40;;;;;;5020116;27;91259;-50
2022/06/29 11:16:54;;;;;;;66.47;52.00;;;26.00;48.70;;;;;;5012262;27;85024;-51
2022/06/29 11:19:30;;;;;;;67.68;52.08;;;26.10;50.00;;;;;;5014453;27;86184;-48
2022/06/29 11:22:17;;;;;;;65.57;52.10;;;26.00;49.00;;;;;;5018464;27;85745;-52
2022/06/29 11:24:50;;;;;;;64.68;51.90;;;26.10;48.70;;;;;;5022868;27;85509;-53
2022/06/29 11:27:36;;;;;;;64.22;51.83;;;26.20;48.10;;;;;;5029495;27;85648;-51
2022/06/29 11:30:13;;;;;;;65.00;51.60;;;26.20;49.30;;;;;;5028698;27;85049;-50
2022/06/29 11:32:41;;;;;;;64.85;51.90;;;26.30;48.80;;;;;;5028275;27;85447;-51
2022/06/29 11:35:08;;;;;;;66.00;52.10;;;26.30;49.40;;;;;;5012049;27;86498;-48
2022/06/29 11:37:34;;;;;;;63.42;51.75;;;26.40;49.30;;;;;;5003548;27;85979;-50
2022/06/29 11:40:00;;;;;;;65.03;52.33;;;26.50;49.50;;;;;;5021855;27;86183;-50
2022/06/29 11:45:20;;;;;;;67.28;52.30;;;26.30;50.10;;;;;;5031819;27;85526;-52
2022/06/29 11:47:52;;;;;;;66.18;51.80;;;26.40;50.40;;;;;;5010895;27;85195;-50
2022/06/29 11:50:19;;;;;;;64.45;52.00;;;26.40;48.00;;;;;;5017200;27;86059;-49
2022/06/29 11:52:47;;;;;;;65.57;51.92;;;26.30;50.30;;;;;;5024812;27;86977;-50
2022/06/29 11:55:13;;;;;;;65.03;52.15;;;26.40;50.60;;;;;;5030405;27;85305;-49
2022/06/29 11:57:38;;;;;;;64.28;51.63;;;26.50;49.70;;;;;;5024596;27;85395;-51
2022/06/29 12:00:09;;;;;;;67.13;52.03;;;26.60;49.10;;;;;;5012550;27;86748;-49
2022/06/29 12:02:34;;;;;;;64.00;51.70;;;26.50;48.40;;;;;;5017081;27;87334;-48
2022/06/29 12:05:02;;;;;;;64.55;51.95;;;26.50;47.80;;;;;;5015177;27;85618;-56
2022/06/29 12:07:29;;;;;;;65.50;51.70;;;26.60;47.70;;;;;;5000038;27;87605;-45
2022/06/29 12:09:57;;;;;;;66.85;51.65;;;26.60;48.10;;;;;;5025589;27;85840;-56
2022/06/29 12:12:26;;;;;;;64.78;52.05;;;26.50;48.30;;;;;;5016142;27;87439;-46
2022/06/29 12:14:51;;;;;;;65.18;52.15;;;26.40;50.00;;;;;;5024848;27;86451;-56
2022/06/29 12:17:17;;;;;;;65.60;52.03;;;26.40;50.60;;;;;;5014502;27;88600;-50
2022/06/29 12:19:44;;;;;;;66.95;52.08;;;26.40;48.80;;;;;;5010742;27;86285;-43
2022/06/29 12:22:10;;;;;;;65.45;52.28;;;26.50;49.70;;;;;;5013531;27;91009;-50
2022/06/29 12:24:36;;;;;;;67.22;52.13;;;26.50;49.70;;;;;;5020209;27;88054;-49
2022/06/29 12:27:02;;;;;;;64.57;52.13;;;26.50;49.50;;;;;;5027039;27;85503;-48
2022/06/29 12:29:28;;;;;;;65.03;52.17;;;26.50;49.70;;;;;;5034238;27;85399;-49
2022/06/29 12:31:54;;;;;;;67.45;52.25;;;26.60;50.30;;;;;;5024864;27;87984;-51
2022/06/29 12:34:19;;;;;;;64.82;51.95;;;26.60;50.80;;;;;;5016289;27;88223;-48
2022/06/29 12:36:46;;;;;;;65.05;52.33;;;26.60;50.20;;;;;;5007264;27;85247;-47
2022/06/29 12:39:11;;;;;;;65.25;52.03;;;26.70;47.80;;;;;;5021446;27;85640;-49
2022/06/29 12:41:37;;;;;;;66.97;52.15;;;26.80;49.20;;;;;;5023749;27;86118;-49
2022/06/29 12:44:04;;;;;;;66.22;52.03;;;26.80;49.50;;;;;;5016915;27;85583;-49
2022/06/29 12:46:31;;;;;;;64.70;52.42;;;26.70;49.80;;;;;;5012727;27;86869;-49
2022/06/29 12:48:57;;;;;;;65.57;52.28;;;26.70;50.10;;;;;;5023115;27;85735;-54
2022/06/29 12:51:24;;;;;;;65.72;51.97;;;26.80;50.00;;;;;;4992662;27;86874;-47
2022/06/29 12:53:50;;;;;;;67.25;52.35;;;26.60;50.90;;;;;;5026845;27;88971;-47